Details From CYZG - Salluit
To CYGL - LA GRANDE RIVIERE
Flight Number -
Tags decoded
Created
Modified
Stats Distance 518 nm / 959 km
Max Altitude 0 ft / 0 m
Waypoints 2
Social Downloads 0
Likes 0
Share VATSIM

Download

Looking for another format? Having issues loading an existing format? Contact us
Advertisement - Login to hide

Notes

Requested: CYZG CYGL

Route

CYZG CYGL

ID Type Via Altitude Latitude Longitude Leg Dist Tot Dist Heading (true) Name
O CYZG APT - 0 ft / 0 m 62.17918˚ -75.66731˚ - 0 nm - Salluit
O CYGL APT - 0 ft / 0 m 53.62537˚ -77.70412˚ 517 nm 517 nm 188° / 186° LA GRANDE RIVIERE

Altitude Profile

Advertisement - Login to hide

Weather


0- 5 10 15 20 25 30 35+ Temperature / ° C

Clouds and Precipitation
Forecast for 2018-05-20 12:00 UTC. Updated 3 hours ago

Ground ~20,000 ft ~40,000 ft Winds

CYZG

Details ICAO CYZG (YZG)
Name Salluit
Region Canada
Timezone America/Montreal (UTC-4.0)
Stats Elevation 705 ft / 215 m (AMSL)
Location 62.179178° -75.667313°
Runways 1
Magnetic Variation 22.825° W

METAR

CYZG 201400Z 24006KT 10SM -SN VCFG OVC006 M09/M10 A2966 RMK SC8 SLP068

Decode

TAF

TAF CYZG 201338Z 2014/2021 24008KT P6SM -SN OVC004 TEMPO 2014/2021 P6SM NSW OVC010 PROB30 2014/2018 1/2SM -SN FZFG VV002 RMK NXT FCST WILL BE ISSUED AT 211345Z

Decode

Departure Runways

ID Width Length Bearing (true) Bearing (mag) Surface Threshold Offset Overrun Length
1 115 ft / 35 m 3,939 ft / 1,201 m 187.01° 209.84° Gravel 0 ft / 0 m 0 ft / 0 m
19 115 ft / 35 m 3,939 ft / 1,201 m 7.01° 29.84° Gravel 0 ft / 0 m 0 ft / 0 m

CYGL

Details ICAO CYGL (YGL)
Name LA GRANDE RIVIERE
Region Canada
Timezone America/Montreal (UTC-4.0)
Stats Elevation 639 ft / 195 m (AMSL)
Location 53.625369° -77.704115°
Runways 1
Magnetic Variation 15.268° W

METAR

CYGL 201400Z 21011G17KT 15SM -RA SCT009 BKN045 OVC050 01/M01 A2975 RMK SF3SC3SC2 SLP089

Decode

TAF

TAF TAF AMD CYGL 201247Z 2012/2112 20008KT P6SM FEW003 BKN080 TEMPO 2012/2014 5SM -FZRA -SN FEW003 OVC008 FM201400 25015G25KT 6SM -RA BR SCT008 OVC025 TEMPO 2014/2017 4SM -RA BR BKN008 OVC025 FM201700 29018G28KT P6SM OVC012 TEMPO 2017/2019 6SM -SHSN BKN008 FM201900 29018G28KT 6SM -SHSN BKN020 BECMG 2104/2106 29015G25KT RMK NXT FCST BY 201800Z

Decode

Destination Runways

ID Width Length Bearing (true) Bearing (mag) Surface Threshold Offset Overrun Length
13 150 ft / 46 m 6,469 ft / 1,972 m 113.03° 128.30° Asphalt 0 ft / 0 m 0 ft / 0 m
31 150 ft / 46 m 6,469 ft / 1,972 m 293.05° 308.32° Asphalt 0 ft / 0 m 0 ft / 0 m

Popular Alternatives